Time,TemperatureF,DewpointF,PressureIn,WindDirection,WindDirectionDegrees,WindSpeedMPH,WindSpeedGustMPH,Humidity,HourlyPrecipIn,Conditions,Clouds,dailyrainin,SoftwareType,DateUTC
2013-10-20 00:16:00,45.1,44.6,30.01,NNW,337,0.0,-999.0,98,-99.99,,,0.00,Acu-Link.com,2013-10-20 05:16:00,
2013-10-20 00:44:00,44.6,44.1,30.02,NE,45,0.0,-999.0,98,-99.99,,,0.00,Acu-Link.com,2013-10-20 05:44:00,
2013-10-20 00:59:00,44.4,43.9,30.02,NNW,337,0.0,-999.0,98,-99.99,,,0.00,Acu-Link.com,2013-10-20 05:59:00,
2013-10-20 01:14:00,43.9,43.4,30.01,NE,45,0.0,-999.0,98,-99.99,,,0.00,Acu-Link.com,2013-10-20 06:14:00,
2013-10-20 01:29:00,43.7,43.2,30.01,NE,45,0.0,-999.0,98,-99.99,,,0.00,Acu-Link.com,2013-10-20 06:29:00,
2013-10-20 01:44:00,43.7,43.2,30.01,NNE,22,0.0,-999.0,98,-99.99,,,0.00,Acu-Link.com,2013-10-20 06:44:00,
2013-10-20 02:00:00,43.5,43.0,30.01,NNE,22,0.0,-999.0,98,-99.99,,,0.00,Acu-Link.com,2013-10-20 07:00:00,
2013-10-20 02:15:00,43.3,42.8,30.00,NNE,22,0.0,-999.0,98,-99.99,,,0.00,Acu-Link.com,2013-10-20 07:15:00,
2013-10-20 02:48:00,45.0,44.5,30.01,NNW,337,0.0,-999.0,98,-99.99,,,0.00,Acu-Link.com,2013-10-20 07:48:00,
2013-10-20 03:04:00,45.3,44.8,30.01,North,0,1.1,-999.0,98,-99.99,,,0.00,Acu-Link.com,2013-10-20 08:04:00,
2013-10-20 03:21:00,44.4,43.9,30.01,East,90,0.0,-999.0,98,-99.99,,,0.00,Acu-Link.com,2013-10-20 08:21:00,
2013-10-20 03:36:00,44.1,43.6,30.01,NW,315,0.0,-999.0,98,-99.99,,,0.00,Acu-Link.com,2013-10-20 08:36:00,
2013-10-20 03:51:00,43.3,42.8,30.00,NNE,22,0.0,-999.0,98,-99.99,,,0.00,Acu-Link.com,2013-10-20 08:51:00,
2013-10-20 04:06:00,43.5,43.0,30.00,ESE,112,0.0,-999.0,98,-99.99,,,0.00,Acu-Link.com,2013-10-20 09:06:00,
2013-10-20 04:21:00,43.2,42.7,30.01,East,90,0.0,-999.0,98,-99.99,,,0.00,Acu-Link.com,2013-10-20 09:21:00,
2013-10-20 04:36:00,41.9,41.4,30.01,North,0,0.0,-999.0,98,-99.99,,,0.00,Acu-Link.com,2013-10-20 09:36:00,
2013-10-20 09:01:00,48.0,47.5,30.07,South,180,0.0,-999.0,98,-99.99,,,0.00,Acu-Link.com,2013-10-20 14:01:00,
2013-10-20 09:16:00,48.9,48.4,30.07,NE,45,2.2,-999.0,98,-99.99,,,0.00,Acu-Link.com,2013-10-20 14:16:00,
2013-10-20 09:31:00,50.2,49.7,30.06,ESE,112,1.1,-999.0,98,-99.99,,,0.00,Acu-Link.com,2013-10-20 14:31:00,
2013-10-20 09:46:00,52.0,51.5,30.06,ESE,112,0.0,-999.0,98,-99.99,,,0.00,Acu-Link.com,2013-10-20 14:46:00,
2013-10-20 10:01:00,52.3,51.8,30.06,NE,45,2.2,-999.0,98,-99.99,,,0.00,Acu-Link.com,2013-10-20 15:01:00,
2013-10-20 10:16:00,54.0,53.4,30.06,North,0,0.0,-999.0,98,-99.99,,,0.00,Acu-Link.com,2013-10-20 15:16:00,
2013-10-20 10:32:00,55.4,54.8,30.05,SE,135,2.2,-999.0,98,-99.99,,,0.00,Acu-Link.com,2013-10-20 15:32:00,
2013-10-20 10:47:00,57.2,56.6,30.06,NNW,337,2.7,-999.0,98,-99.99,,,0.00,Acu-Link.com,2013-10-20 15:47:00,
2013-10-20 11:02:00,59.5,58.9,30.06,SE,135,2.2,-999.0,98,-99.99,,,0.00,Acu-Link.com,2013-10-20 16:02:00,
2013-10-20 11:20:00,59.7,59.1,30.05,North,0,3.2,-999.0,98,-99.99,,,0.00,Acu-Link.com,2013-10-20 16:20:00,
2013-10-20 11:38:00,61.3,60.7,30.04,SE,135,2.2,-999.0,98,-99.99,,,0.00,Acu-Link.com,2013-10-20 16:38:00,
2013-10-20 11:53:00,64.4,63.8,30.04,SE,135,3.7,-999.0,98,-99.99,,,0.00,Acu-Link.com,2013-10-20 16:53:00,
2013-10-20 12:08:00,65.3,64.7,30.04,North,0,2.2,-999.0,98,-99.99,,,0.00,Acu-Link.com,2013-10-20 17:08:00,
2013-10-20 12:24:00,67.5,66.9,30.03,SSE,157,2.2,-999.0,98,-99.99,,,0.00,Acu-Link.com,2013-10-20 17:24:00,
2013-10-20 12:39:00,66.0,65.4,30.02,NNW,337,1.7,-999.0,98,-99.99,,,0.00,Acu-Link.com,2013-10-20 17:39:00,
2013-10-20 12:55:00,68.2,67.6,30.02,South,180,3.7,-999.0,98,-99.99,,,0.00,Acu-Link.com,2013-10-20 17:55:00,
2013-10-20 13:13:00,68.5,67.9,30.01,North,0,2.2,-999.0,98,-99.99,,,0.00,Acu-Link.com,2013-10-20 18:13:00,
2013-10-20 13:28:00,69.3,68.7,30.00,West,270,2.7,-999.0,98,-99.99,,,0.00,Acu-Link.com,2013-10-20 18:28:00,
2013-10-20 13:43:00,68.5,67.9,30.00,WNW,292,4.7,-999.0,98,-99.99,,,0.00,Acu-Link.com,2013-10-20 18:43:00,
2013-10-20 13:58:00,70.5,69.9,29.99,West,270,1.7,-999.0,98,-99.99,,,0.00,Acu-Link.com,2013-10-20 18:58:00,
2013-10-20 14:13:00,72.0,71.4,29.98,SSE,157,2.2,-999.0,98,-99.99,,,0.00,Acu-Link.com,2013-10-20 19:13:00,
2013-10-20 14:28:00,70.2,69.6,29.98,East,90,1.7,-999.0,98,-99.99,,,0.00,Acu-Link.com,2013-10-20 19:28:00,
2013-10-20 14:43:00,72.9,72.3,29.97,SSW,202,2.7,-999.0,98,-99.99,,,0.00,Acu-Link.com,2013-10-20 19:43:00,
2013-10-20 14:58:00,71.1,70.5,29.97,NW,315,2.7,-999.0,98,-99.99,,,0.00,Acu-Link.com,2013-10-20 19:58:00,
2013-10-20 15:14:00,72.7,72.1,29.96,WNW,292,1.1,-999.0,98,-99.99,,,0.00,Acu-Link.com,2013-10-20 20:14:00,
2013-10-20 15:29:00,72.9,72.3,29.95,NW,315,1.1,-999.0,98,-99.99,,,0.00,Acu-Link.com,2013-10-20 20:29:00,
2013-10-20 15:47:00,70.9,70.3,29.95,SSE,157,2.7,-999.0,98,-99.99,,,0.00,Acu-Link.com,2013-10-20 20:47:00,
2013-10-20 16:03:00,70.3,69.7,29.94,West,270,3.7,-999.0,98,-99.99,,,0.00,Acu-Link.com,2013-10-20 21:03:00,
2013-10-20 16:18:00,72.9,72.3,29.94,South,180,0.0,-999.0,98,-99.99,,,0.00,Acu-Link.com,2013-10-20 21:18:00,
2013-10-20 16:33:00,72.0,71.4,29.94,NE,45,2.7,-999.0,98,-99.99,,,0.00,Acu-Link.com,2013-10-20 21:33:00,
2013-10-20 16:48:00,72.3,71.7,29.95,NW,315,1.7,-999.0,98,-99.99,,,0.00,Acu-Link.com,2013-10-20 21:48:00,
2013-10-20 17:03:00,72.1,71.5,29.95,NNE,22,2.7,-999.0,98,-99.99,,,0.00,Acu-Link.com,2013-10-20 22:03:00,
2013-10-20 17:18:00,71.2,70.6,29.96,NE,45,1.1,-999.0,98,-99.99,,,0.00,Acu-Link.com,2013-10-20 22:18:00,
2013-10-20 18:08:00,70.5,69.9,29.95,WNW,292,0.0,-999.0,98,-99.99,,,0.00,Acu-Link.com,2013-10-20 23:08:00,